TimeMST,TemperatureF,Dew PointF,Humidity,Sea Level PressureIn,VisibilityMPH,Wind Direction,Wind SpeedMPH,Gust SpeedMPH,PrecipitationIn,Events,Conditions,WindDirDegrees,DateUTC
12:53 AM,24.1,15.1,69,30.54,10.0,South,8.1,-,N/A,,Clear,190,2012-11-23 07:53:00
1:53 AM,23.0,14.0,68,30.53,10.0,SE,4.6,-,N/A,,Clear,140,2012-11-23 08:53:00
2:53 AM,24.1,15.1,69,30.52,10.0,SSW,6.9,-,N/A,,Clear,200,2012-11-23 09:53:00
3:53 AM,23.0,12.9,65,30.53,10.0,SSW,6.9,-,N/A,,Clear,200,2012-11-23 10:53:00
4:53 AM,26.1,15.1,63,30.52,10.0,South,5.8,-,N/A,,Clear,180,2012-11-23 11:53:00
5:53 AM,24.1,16.0,71,30.53,10.0,SSW,8.1,-,N/A,,Clear,210,2012-11-23 12:53:00
6:53 AM,25.0,16.0,69,30.51,10.0,South,8.1,-,N/A,,Clear,190,2012-11-23 13:53:00
7:53 AM,24.1,16.0,71,30.50,10.0,South,5.8,-,N/A,,Clear,180,2012-11-23 14:53:00
8:53 AM,28.0,18.0,66,30.52,10.0,SSW,5.8,-,N/A,,Clear,210,2012-11-23 15:53:00
9:53 AM,30.9,19.9,64,30.48,10.0,South,5.8,-,N/A,,Clear,190,2012-11-23 16:53:00
10:53 AM,34.0,23.0,64,30.44,10.0,South,6.9,-,N/A,,Clear,190,2012-11-23 17:53:00
11:53 AM,37.9,23.0,55,30.38,10.0,South,6.9,-,N/A,,Clear,190,2012-11-23 18:53:00
12:53 PM,43.0,23.0,45,30.32,10.0,SSW,8.1,-,N/A,,Clear,210,2012-11-23 19:53:00
1:53 PM,45.0,24.1,44,30.28,10.0,SW,12.7,-,N/A,,Clear,230,2012-11-23 20:53:00
2:53 PM,46.0,23.0,40,30.25,10.0,SW,13.8,-,N/A,,Clear,230,2012-11-23 21:53:00
3:53 PM,44.1,23.0,43,30.26,10.0,WSW,13.8,-,N/A,,Clear,240,2012-11-23 22:53:00
4:53 PM,37.0,23.0,57,30.27,10.0,SW,12.7,-,N/A,,Clear,220,2012-11-23 23:53:00
5:53 PM,37.0,21.0,52,30.28,10.0,South,9.2,-,N/A,,Clear,180,2012-11-24 00:53:00
6:53 PM,33.1,21.9,64,30.30,10.0,South,8.1,-,N/A,,Clear,190,2012-11-24 01:53:00
7:53 PM,32.0,21.0,64,30.27,10.0,SSW,8.1,-,N/A,,Clear,210,2012-11-24 02:53:00
8:53 PM,30.9,19.0,61,30.24,10.0,SW,10.4,-,N/A,,Clear,230,2012-11-24 03:53:00
9:53 PM,33.1,19.0,56,30.21,10.0,South,5.8,-,N/A,,Clear,180,2012-11-24 04:53:00
10:53 PM,33.1,19.0,56,30.18,10.0,South,11.5,-,N/A,,Clear,180,2012-11-24 05:53:00
11:53 PM,33.1,19.0,56,30.17,10.0,SW,11.5,-,N/A,,Mostly Cloudy,230,2012-11-24 06:53:00